createdAt,value
2023-04-20T00:02:22.391Z,9.97
2023-04-20T00:04:49.985Z,9.90
2023-04-20T00:07:18.810Z,9.63
2023-04-20T00:09:46.175Z,8.10
2023-04-20T00:12:13.440Z,10.23
2023-04-20T00:14:40.760Z,10.60
2023-04-20T00:17:08.175Z,9.33
2023-04-20T00:19:35.838Z,9.33
2023-04-20T00:22:03.157Z,8.93
2023-04-20T00:24:32.665Z,7.77
2023-04-20T00:27:00.166Z,7.40
2023-04-20T00:29:27.506Z,5.30
2023-04-20T00:31:54.952Z,4.37
2023-04-20T00:34:22.280Z,3.30
2023-04-20T00:36:49.962Z,2.70
2023-04-20T00:39:17.457Z,2.73
2023-04-20T00:41:47.111Z,2.50
2023-04-20T00:44:14.395Z,1.97
2023-04-20T00:46:41.971Z,2.00
2023-04-20T00:49:10.127Z,2.60
2023-04-20T00:51:37.752Z,2.60
2023-04-20T00:54:05.751Z,2.60
2023-04-20T00:56:33.400Z,3.00
2023-04-20T00:59:08.358Z,3.23
2023-04-20T01:01:35.748Z,4.53
2023-04-20T01:04:03.483Z,3.70
2023-04-20T01:06:32.365Z,3.83
2023-04-20T01:08:59.681Z,4.13
2023-04-20T01:11:27.223Z,4.80
2023-04-20T01:13:54.646Z,5.20
2023-04-20T01:16:22.791Z,6.00
2023-04-20T01:18:52.122Z,5.83
2023-04-20T01:21:21.526Z,6.70
2023-04-20T01:23:50.131Z,6.30
2023-04-20T01:26:19.475Z,6.07
2023-04-20T01:28:47.246Z,6.87
2023-04-20T01:31:14.613Z,7.00
2023-04-20T01:33:41.927Z,7.30
2023-04-20T01:36:09.979Z,6.93
2023-04-20T01:38:37.944Z,7.17
2023-04-20T01:41:10.611Z,7.33
2023-04-20T01:43:39.044Z,6.07
2023-04-20T01:46:07.023Z,6.43
2023-04-20T01:48:34.977Z,5.07
2023-04-20T01:51:02.354Z,6.80
2023-04-20T01:53:29.661Z,8.57
2023-04-20T01:55:58.119Z,8.20
2023-04-20T01:58:26.253Z,10.43
2023-04-20T02:00:53.616Z,11.80
2023-04-20T02:03:21.247Z,7.60
2023-04-20T02:05:48.649Z,10.50
2023-04-20T02:08:16.012Z,9.67
2023-04-20T02:10:43.273Z,10.20
2023-04-20T02:13:11.056Z,8.53
2023-04-20T02:15:39.070Z,19.67
2023-04-20T02:18:06.461Z,9.33
2023-04-20T02:20:34.020Z,12.10
2023-04-20T02:23:01.431Z,17.50
2023-04-20T02:25:29.874Z,23.67
2023-04-20T02:27:57.232Z,14.10
2023-04-20T02:30:24.789Z,9.37
2023-04-20T02:32:52.818Z,8.93
2023-04-20T02:35:20.680Z,9.27
2023-04-20T02:37:50.104Z,8.97
2023-04-20T02:40:17.458Z,8.73
2023-04-20T02:42:44.790Z,7.50
2023-04-20T02:45:12.431Z,8.93
2023-04-20T02:47:39.790Z,7.43
2023-04-20T02:50:08.962Z,6.50
2023-04-20T02:52:36.299Z,9.43
2023-04-20T02:55:03.968Z,16.27
2023-04-20T02:57:31.281Z,37.57
2023-04-20T02:59:58.602Z,75.63
2023-04-20T03:02:26.055Z,67.60
2023-04-20T03:04:53.598Z,28.63
2023-04-20T03:07:21.936Z,13.20
2023-04-20T03:09:49.245Z,27.47
2023-04-20T03:12:17.736Z,25.07
2023-04-20T03:14:45.469Z,23.67
2023-04-20T03:17:13.005Z,11.87
2023-04-20T03:19:40.884Z,10.70
2023-04-20T03:22:08.178Z,14.10
2023-04-20T03:24:36.195Z,14.00
2023-04-20T03:27:03.622Z,29.70
2023-04-20T03:29:30.943Z,41.37
2023-04-20T03:31:58.309Z,30.07
2023-04-20T03:34:26.065Z,16.60
2023-04-20T03:36:53.430Z,22.13
2023-04-20T03:39:20.768Z,12.93
2023-04-20T03:41:48.814Z,11.80
2023-04-20T03:44:16.175Z,8.73
2023-04-20T03:46:43.546Z,9.07
2023-04-20T03:49:10.866Z,12.13
2023-04-20T03:51:38.191Z,13.70
2023-04-20T03:54:05.904Z,12.87
2023-04-20T03:56:33.229Z,12.10
2023-04-20T03:59:01.222Z,12.40
2023-04-20T04:01:28.835Z,11.50
2023-04-20T04:03:56.353Z,7.40
2023-04-20T04:06:25.135Z,12.00
2023-04-20T04:08:52.547Z,7.43
2023-04-20T04:11:20.214Z,10.13
2023-04-20T04:13:47.720Z,15.20
2023-04-20T04:16:15.688Z,15.50
2023-04-20T04:18:44.373Z,13.23
2023-04-20T04:21:11.863Z,10.67
2023-04-20T04:23:40.507Z,16.73
2023-04-20T04:26:07.977Z,20.87
2023-04-20T04:28:35.314Z,16.57
2023-04-20T04:31:05.225Z,14.70
2023-04-20T04:33:33.477Z,13.20
2023-04-20T04:36:01.197Z,13.10
2023-04-20T04:38:28.502Z,15.60
2023-04-20T04:40:56.655Z,12.53
2023-04-20T04:43:24.948Z,13.60
2023-04-20T04:45:52.836Z,14.90
2023-04-20T04:48:20.117Z,13.33
2023-04-20T04:50:48.243Z,13.17
2023-04-20T04:53:15.615Z,11.27
2023-04-20T04:55:42.869Z,13.63
2023-04-20T04:58:10.098Z,12.73
2023-04-20T05:00:37.550Z,15.03
2023-04-20T05:03:05.505Z,14.40
2023-04-20T05:05:32.874Z,17.00
2023-04-20T05:08:02.541Z,11.47
2023-04-20T05:10:30.030Z,14.33
2023-04-20T05:13:00.902Z,14.80
2023-04-20T05:16:08.892Z,12.70
2023-04-20T05:21:38.636Z,14.37
2023-04-20T05:24:07.126Z,12.33
2023-04-20T05:26:42.277Z,15.13
2023-04-20T05:34:27.991Z,14.60
2023-04-20T05:45:02.918Z,15.93
2023-04-20T05:47:47.808Z,14.77
2023-04-20T05:50:18.024Z,15.20
2023-04-20T05:53:46.363Z,14.50
2023-04-20T05:59:09.177Z,16.03
2023-04-20T06:01:37.394Z,15.60
2023-04-20T06:04:04.863Z,15.23
2023-04-20T06:06:32.309Z,16.80
2023-04-20T06:08:59.685Z,15.33
2023-04-20T06:11:26.919Z,13.80
2023-04-20T06:13:54.232Z,17.77
2023-04-20T06:16:21.598Z,17.50
2023-04-20T06:18:49.844Z,16.53
2023-04-20T06:21:17.422Z,15.80
2023-04-20T06:23:44.980Z,16.60
2023-04-20T06:26:12.324Z,15.93
2023-04-20T06:28:39.635Z,17.23
2023-04-20T06:31:12.105Z,15.37
2023-04-20T06:33:40.148Z,14.50
2023-04-20T06:36:08.438Z,15.40
2023-04-20T06:38:36.037Z,16.30
2023-04-20T06:41:03.542Z,16.40
2023-04-20T06:43:31.102Z,16.50
2023-04-20T06:45:58.402Z,16.87
2023-04-20T06:48:31.975Z,14.87
2023-04-20T06:51:00.579Z,12.90
2023-04-20T06:53:28.567Z,14.17
2023-04-20T06:55:56.141Z,14.37
2023-04-20T06:58:23.530Z,15.03
2023-04-20T07:00:50.848Z,14.20
2023-04-20T07:03:18.512Z,13.70
2023-04-20T07:05:45.932Z,14.43
2023-04-20T07:08:14.902Z,14.07
2023-04-20T07:10:42.841Z,16.47
2023-04-20T07:13:10.116Z,12.20
2023-04-20T07:15:37.334Z,13.80
2023-04-20T07:18:04.804Z,8.83
2023-04-20T07:20:32.321Z,11.37
2023-04-20T07:22:59.624Z,14.93
2023-04-20T07:25:27.147Z,12.83
2023-04-20T07:27:55.126Z,12.97
2023-04-20T07:30:22.557Z,9.23
2023-04-20T07:32:50.266Z,13.80
2023-04-20T07:35:17.589Z,13.40
2023-04-20T07:37:44.820Z,14.80
2023-04-20T07:40:12.338Z,16.03
2023-04-20T07:42:39.737Z,12.60
2023-04-20T07:45:09.671Z,16.90
2023-04-20T07:47:37.533Z,13.10
2023-04-20T07:50:05.653Z,16.20
2023-04-20T07:52:33.053Z,16.40
2023-04-20T07:55:00.469Z,16.00
2023-04-20T07:57:29.367Z,15.93
2023-04-20T07:59:56.684Z,15.10
2023-04-20T08:02:24.837Z,14.03
2023-04-20T08:04:52.453Z,41.40
2023-04-20T08:07:20.135Z,15.33
2023-04-20T08:09:47.443Z,19.83
2023-04-20T08:12:14.730Z,14.97
2023-04-20T08:14:42.233Z,15.57
2023-04-20T08:17:09.482Z,13.90
2023-04-20T08:19:37.458Z,12.40
2023-04-20T08:22:06.319Z,16.57
2023-04-20T08:24:33.760Z,9.43
2023-04-20T08:27:01.091Z,13.00
2023-04-20T08:29:28.536Z,12.07
2023-04-20T08:31:56.114Z,14.27
2023-04-20T08:34:23.500Z,13.03
2023-04-20T08:36:51.543Z,13.43
2023-04-20T08:39:20.972Z,13.87
2023-04-20T08:41:52.986Z,15.50
2023-04-20T08:44:20.533Z,13.63
2023-04-20T08:46:49.217Z,13.93
2023-04-20T08:49:18.139Z,12.33
2023-04-20T08:51:46.564Z,17.27
2023-04-20T08:54:15.001Z,12.47
2023-04-20T08:56:44.304Z,14.70
2023-04-20T08:59:13.507Z,16.13
2023-04-20T09:01:41.733Z,16.93
2023-04-20T09:04:19.513Z,8.57
2023-04-20T09:06:49.467Z,11.07
2023-04-20T09:09:20.112Z,15.97
2023-04-20T09:11:48.514Z,16.20
2023-04-20T09:14:17.562Z,11.83
2023-04-20T09:16:52.247Z,15.33
2023-04-20T09:19:23.637Z,9.13
2023-04-20T09:21:52.781Z,8.10
2023-04-20T09:24:21.711Z,13.60
2023-04-20T09:26:49.443Z,16.70
2023-04-20T09:29:18.135Z,13.83
2023-04-20T09:31:45.596Z,13.20
2023-04-20T09:34:13.444Z,14.37
2023-04-20T09:36:42.052Z,13.57
2023-04-20T09:39:11.460Z,16.70
2023-04-20T09:41:41.073Z,15.33
2023-04-20T09:44:09.486Z,15.13
2023-04-20T09:46:38.778Z,13.70
2023-04-20T09:49:07.671Z,15.67
2023-04-20T09:51:36.762Z,10.90
2023-04-20T09:54:05.648Z,10.80
2023-04-20T09:56:34.331Z,10.13
2023-04-20T09:59:03.357Z,13.83
2023-04-20T10:01:32.765Z,16.27
2023-04-20T10:04:01.701Z,13.93
2023-04-20T10:06:32.154Z,14.03
2023-04-20T10:09:01.141Z,11.47
2023-04-20T10:11:40.662Z,15.90
2023-04-20T10:14:19.214Z,13.93
2023-04-20T10:16:58.203Z,17.63
2023-04-20T10:19:35.791Z,13.43
2023-04-20T10:22:03.514Z,13.33
2023-04-20T10:24:31.854Z,12.50
2023-04-20T10:26:59.641Z,13.50
2023-04-20T10:29:28.522Z,9.37
2023-04-20T10:31:56.309Z,16.20
2023-04-20T10:34:34.391Z,12.60
2023-04-20T10:37:09.221Z,15.27
2023-04-20T10:39:37.437Z,13.97
2023-04-20T10:42:04.755Z,12.33
2023-04-20T10:44:34.654Z,15.53
2023-04-20T10:47:02.107Z,9.30
2023-04-20T10:49:31.104Z,12.63
2023-04-20T10:51:58.492Z,14.73
2023-04-20T10:54:26.381Z,8.83
2023-04-20T10:56:54.136Z,9.50
2023-04-20T10:59:23.130Z,13.10
2023-04-20T11:01:51.873Z,8.83
2023-04-20T11:04:28.861Z,13.33
2023-04-20T11:07:03.983Z,13.00
2023-04-20T11:09:33.191Z,14.20
2023-04-20T11:12:01.664Z,10.03
2023-04-20T11:14:29.811Z,15.17
2023-04-20T11:16:57.880Z,11.60
2023-04-20T11:19:27.036Z,9.07
2023-04-20T11:21:54.549Z,14.20
2023-04-20T11:24:23.106Z,12.07
2023-04-20T11:26:52.689Z,13.43
2023-04-20T11:29:31.259Z,14.20
2023-04-20T11:32:00.896Z,11.10
2023-04-20T11:34:28.571Z,12.37
2023-04-20T11:36:56.019Z,12.13
2023-04-20T11:39:24.193Z,12.77
2023-04-20T11:41:51.859Z,9.03
2023-04-20T11:44:20.490Z,14.40
2023-04-20T11:46:48.621Z,11.70
2023-04-20T11:49:17.335Z,14.97
2023-04-20T11:51:45.711Z,12.43
2023-04-20T11:54:13.308Z,14.13
2023-04-20T11:56:42.488Z,11.83
2023-04-20T11:59:10.470Z,11.93
2023-04-20T12:01:37.990Z,13.80
2023-04-20T12:04:05.776Z,10.83
2023-04-20T12:06:34.047Z,15.00
2023-04-20T12:09:01.720Z,12.90
2023-04-20T12:11:29.056Z,14.67
2023-04-20T12:13:56.343Z,13.23
2023-04-20T12:16:23.699Z,14.97
2023-04-20T12:18:51.066Z,10.80
2023-04-20T12:21:18.352Z,14.73
2023-04-20T12:23:48.457Z,15.60
2023-04-20T12:26:16.022Z,15.07
2023-04-20T12:28:44.496Z,14.33
2023-04-20T12:31:11.952Z,18.03
2023-04-20T12:33:39.324Z,9.27
2023-04-20T12:36:06.997Z,15.77
2023-04-20T12:38:34.368Z,13.73
2023-04-20T12:41:03.533Z,11.47
2023-04-20T12:43:31.194Z,15.40
2023-04-20T12:45:58.517Z,17.00
2023-04-20T12:48:26.171Z,15.53
2023-04-20T12:50:53.499Z,15.80
2023-04-20T12:53:20.808Z,16.70
2023-04-20T12:55:49.547Z,10.70
2023-04-20T12:58:21.014Z,16.47
2023-04-20T13:00:48.374Z,14.30
2023-04-20T13:03:16.241Z,12.47
2023-04-20T13:05:43.995Z,10.50
2023-04-20T13:08:11.387Z,15.90
2023-04-20T13:10:41.308Z,15.60
2023-04-20T13:13:08.931Z,16.90
2023-04-20T13:15:39.157Z,16.30
2023-04-20T13:18:07.094Z,18.53
2023-04-20T13:20:34.449Z,17.13
2023-04-20T13:23:03.177Z,19.47
2023-04-20T13:25:32.702Z,19.33
2023-04-20T13:28:01.084Z,15.43
2023-04-20T13:30:28.572Z,16.63
2023-04-20T13:32:56.717Z,18.23
2023-04-20T13:35:24.500Z,20.37
2023-04-20T13:37:51.878Z,17.83
2023-04-20T13:40:19.228Z,16.30
2023-04-20T13:42:46.546Z,18.47
2023-04-20T13:45:13.874Z,14.77
2023-04-20T13:47:41.313Z,17.07
2023-04-20T13:50:10.356Z,18.93
2023-04-20T13:52:37.972Z,16.23
2023-04-20T13:55:05.794Z,17.40
2023-04-20T13:57:33.098Z,19.00
2023-04-20T14:00:01.206Z,18.73
2023-04-20T14:02:29.056Z,19.83
2023-04-20T14:04:56.491Z,18.70
2023-04-20T14:07:24.569Z,17.90
2023-04-20T14:09:55.610Z,16.97
2023-04-20T14:12:23.055Z,17.50
2023-04-20T14:14:50.651Z,14.03
2023-04-20T14:17:18.019Z,19.37
2023-04-20T14:19:45.386Z,19.13
2023-04-20T14:22:12.688Z,18.10
2023-04-20T14:24:40.639Z,16.10
2023-04-20T14:27:08.015Z,14.77
2023-04-20T14:29:35.364Z,20.17
2023-04-20T14:32:02.623Z,20.60
2023-04-20T14:34:29.931Z,19.70
2023-04-20T14:36:57.211Z,13.50
2023-04-20T14:39:24.459Z,17.37
2023-04-20T14:41:52.674Z,10.87
2023-04-20T14:44:20.186Z,13.40
2023-04-20T14:46:47.844Z,16.00
2023-04-20T14:49:15.196Z,18.07
2023-04-20T14:51:42.520Z,14.27
2023-04-20T14:54:10.292Z,18.77
2023-04-20T14:56:37.594Z,14.90
2023-04-20T14:59:05.561Z,15.53
2023-04-20T15:01:33.287Z,16.57
2023-04-20T15:04:00.817Z,17.70
2023-04-20T15:06:28.485Z,14.53
2023-04-20T15:08:56.151Z,21.80
2023-04-20T15:11:23.690Z,20.40
2023-04-20T15:13:51.968Z,18.83
2023-04-20T15:16:20.139Z,18.63
2023-04-20T15:18:48.730Z,20.47
2023-04-20T15:21:15.984Z,20.43
2023-04-20T15:23:43.209Z,18.30
2023-04-20T15:26:10.476Z,19.97
2023-04-20T15:28:37.792Z,19.23
2023-04-20T15:31:07.240Z,17.43
2023-04-20T15:33:35.231Z,20.07
2023-04-20T15:36:02.693Z,15.70
2023-04-20T15:38:30.006Z,19.27
2023-04-20T15:40:58.094Z,16.63
2023-04-20T15:43:25.387Z,17.73
2023-04-20T15:45:52.799Z,18.47
2023-04-20T15:48:20.267Z,17.50
2023-04-20T15:50:51.925Z,18.70
2023-04-20T15:53:19.345Z,17.70
2023-04-20T15:55:46.787Z,18.20
2023-04-20T15:58:14.074Z,18.77
2023-04-20T16:00:41.649Z,17.77
2023-04-20T16:03:09.239Z,18.57
2023-04-20T16:05:36.864Z,16.67
2023-04-20T16:08:05.192Z,17.50
2023-04-20T16:10:32.511Z,20.30
2023-04-20T16:12:59.787Z,19.67
2023-04-20T16:15:27.136Z,21.70
2023-04-20T16:17:54.533Z,22.00
2023-04-20T16:20:22.032Z,21.03
2023-04-20T16:22:49.389Z,21.87
2023-04-20T16:25:21.876Z,14.63
2023-04-20T16:27:49.696Z,13.27
2023-04-20T16:30:17.193Z,11.60
2023-04-20T16:32:44.560Z,17.83
2023-04-20T16:35:11.889Z,13.67
2023-04-20T16:37:39.235Z,21.30
2023-04-20T16:40:09.158Z,11.80
2023-04-20T16:42:37.211Z,14.83
2023-04-20T16:45:05.738Z,18.73
2023-04-20T16:47:33.125Z,21.10
2023-04-20T16:50:00.555Z,13.50
2023-04-20T16:52:27.885Z,10.83
2023-04-20T16:54:55.271Z,16.23
2023-04-20T16:57:22.577Z,14.43
2023-04-20T16:59:50.530Z,16.23
2023-04-20T17:02:17.970Z,11.73
2023-04-20T17:04:45.270Z,11.70
2023-04-20T17:07:13.022Z,11.83
2023-04-20T17:09:40.409Z,10.70
2023-04-20T17:12:07.930Z,10.90
2023-04-20T17:14:36.457Z,9.30
2023-04-20T17:17:04.474Z,6.73
2023-04-20T17:19:31.760Z,8.10
2023-04-20T17:21:59.120Z,9.27
2023-04-20T17:24:26.473Z,8.47
2023-04-20T17:26:53.742Z,7.97
2023-04-20T17:29:21.016Z,10.13
2023-04-20T17:31:48.302Z,9.77
2023-04-20T17:34:18.268Z,5.23
2023-04-20T17:36:56.342Z,8.93
2023-04-20T17:39:23.735Z,9.70
2023-04-20T17:41:51.280Z,10.47
2023-04-20T17:44:18.744Z,7.53
2023-04-20T17:46:46.274Z,6.87
2023-04-20T17:49:13.624Z,7.80
2023-04-20T17:51:41.684Z,10.03
2023-04-20T17:54:09.046Z,11.70
2023-04-20T17:56:36.307Z,9.03
2023-04-20T17:59:04.391Z,10.50
2023-04-20T18:01:33.996Z,12.53
2023-04-20T18:04:01.629Z,7.70
2023-04-20T18:06:29.390Z,9.30
2023-04-20T18:08:57.549Z,10.30
2023-04-20T18:11:24.910Z,9.37
2023-04-20T18:13:52.398Z,7.80
2023-04-20T18:16:20.019Z,9.23
2023-04-20T18:18:47.401Z,8.50
2023-04-20T18:21:14.776Z,8.00
2023-04-20T18:23:42.081Z,10.23
2023-04-20T18:26:16.400Z,10.60
2023-04-20T18:28:43.987Z,9.13
2023-04-20T18:31:17.556Z,10.20
2023-04-20T18:33:44.861Z,11.27
2023-04-20T18:36:12.209Z,11.97
2023-04-20T18:38:39.975Z,11.33
2023-04-20T18:41:07.638Z,10.70
2023-04-20T18:43:35.897Z,9.87
2023-04-20T18:46:03.244Z,16.27
2023-04-20T18:48:30.596Z,15.07
2023-04-20T18:51:01.008Z,11.60
2023-04-20T18:53:28.940Z,11.67
2023-04-20T18:55:58.453Z,11.97
2023-04-20T18:58:25.880Z,10.80
2023-04-20T19:00:53.918Z,12.20
2023-04-20T19:03:21.583Z,7.93
2023-04-20T19:05:49.052Z,10.50
2023-04-20T19:08:16.497Z,14.30
2023-04-20T19:10:43.791Z,13.03
2023-04-20T19:13:11.182Z,10.97
2023-04-20T19:15:39.866Z,11.20
2023-04-20T19:18:08.003Z,14.90
2023-04-20T19:20:36.055Z,10.90
2023-04-20T19:23:03.363Z,13.03
2023-04-20T19:25:31.298Z,15.27
2023-04-20T19:27:59.348Z,14.63
2023-04-20T19:30:26.664Z,14.17
2023-04-20T19:32:54.052Z,15.03
2023-04-20T19:35:22.127Z,17.70
2023-04-20T19:37:49.427Z,17.90
2023-04-20T19:40:18.943Z,15.50
2023-04-20T19:42:47.853Z,17.10
2023-04-20T19:45:15.330Z,15.83
2023-04-20T19:47:42.616Z,14.60
2023-04-20T19:50:10.666Z,18.30
2023-04-20T19:52:38.662Z,18.10
2023-04-20T19:55:06.919Z,17.57
2023-04-20T19:57:34.244Z,18.50
2023-04-20T20:00:01.803Z,15.73
2023-04-20T20:02:29.223Z,14.87
2023-04-20T20:04:56.526Z,16.07
2023-04-20T20:07:25.453Z,18.53
2023-04-20T20:09:53.442Z,18.87
2023-04-20T20:12:20.787Z,18.67
2023-04-20T20:14:48.087Z,16.30
2023-04-20T20:17:15.507Z,19.47
2023-04-20T20:19:42.783Z,18.17
2023-04-20T20:22:10.306Z,19.50
2023-04-20T20:24:37.567Z,19.80
2023-04-20T20:27:05.858Z,17.93
2023-04-20T20:29:33.123Z,20.60
2023-04-20T20:32:00.431Z,19.27
2023-04-20T20:34:27.711Z,20.10
2023-04-20T20:36:54.983Z,21.30
2023-04-20T20:39:22.846Z,21.20
2023-04-20T20:41:50.680Z,21.27
2023-04-20T20:44:19.887Z,21.40
2023-04-20T20:46:47.215Z,20.43
2023-04-20T20:49:14.631Z,22.43
2023-04-20T20:51:42.183Z,21.53
2023-04-20T20:54:09.927Z,20.13
2023-04-20T20:56:37.202Z,21.57
2023-04-20T20:59:04.422Z,21.60
2023-04-20T21:01:32.527Z,21.93
2023-04-20T21:04:00.564Z,23.10
2023-04-20T21:06:27.988Z,23.17
2023-04-20T21:08:55.456Z,23.13
2023-04-20T21:11:22.884Z,24.30
2023-04-20T21:13:50.247Z,21.83
2023-04-20T21:16:17.559Z,23.03
2023-04-20T21:18:45.576Z,20.80
2023-04-20T21:21:12.911Z,22.40
2023-04-20T21:23:40.220Z,24.00
2023-04-20T21:26:07.536Z,23.97
2023-04-20T21:28:34.936Z,24.07
2023-04-20T21:31:02.704Z,25.90
2023-04-20T21:33:30.149Z,26.67
2023-04-20T21:35:59.046Z,23.17
2023-04-20T21:38:26.455Z,23.77
2023-04-20T21:40:53.739Z,26.70
2023-04-20T21:43:21.019Z,24.40
2023-04-20T21:45:50.119Z,26.90
2023-04-20T21:48:17.514Z,25.10
2023-04-20T21:50:44.823Z,25.23
2023-04-20T21:53:12.861Z,26.07
2023-04-20T21:55:40.136Z,25.00
2023-04-20T21:58:07.481Z,23.57
2023-04-20T22:00:34.880Z,25.60
2023-04-20T22:03:02.340Z,27.60
2023-04-20T22:05:29.795Z,26.13
2023-04-20T22:07:57.242Z,26.63
2023-04-20T22:10:25.719Z,27.83
2023-04-20T22:12:53.103Z,25.47
2023-04-20T22:15:21.576Z,25.77
2023-04-20T22:17:49.059Z,28.13
2023-04-20T22:20:18.635Z,30.13
2023-04-20T22:22:46.598Z,27.03
2023-04-20T22:25:13.894Z,27.83
2023-04-20T22:27:41.950Z,28.20
2023-04-20T22:30:09.884Z,28.07
2023-04-20T22:32:37.798Z,27.63
2023-04-20T22:35:05.606Z,28.00
2023-04-20T22:37:32.886Z,28.50
2023-04-20T22:40:00.253Z,25.00
2023-04-20T22:42:27.616Z,25.03
2023-04-20T22:44:55.549Z,24.00
2023-04-20T22:47:22.875Z,24.97
2023-04-20T22:49:51.220Z,22.80
2023-04-20T22:52:18.647Z,24.37
2023-04-20T22:54:47.434Z,26.30
2023-04-20T22:57:14.895Z,23.20
2023-04-20T22:59:42.185Z,26.70
2023-04-20T23:02:10.355Z,27.13
2023-04-20T23:04:38.565Z,25.83
2023-04-20T23:07:06.253Z,26.23
2023-04-20T23:09:33.512Z,27.33
2023-04-20T23:12:02.711Z,26.77
2023-04-20T23:14:29.988Z,24.63
2023-04-20T23:16:59.275Z,25.00
2023-04-20T23:19:27.648Z,27.20
2023-04-20T23:21:55.079Z,25.07
2023-04-20T23:24:22.333Z,25.63
2023-04-20T23:26:49.645Z,26.27
2023-04-20T23:29:17.225Z,27.20
2023-04-20T23:31:44.659Z,27.27
2023-04-20T23:34:12.097Z,27.47
2023-04-20T23:36:40.050Z,27.37
2023-04-20T23:39:07.531Z,28.33
2023-04-20T23:41:34.828Z,26.63
2023-04-20T23:44:02.158Z,26.73
2023-04-20T23:46:29.471Z,31.80
2023-04-20T23:48:56.748Z,29.87
2023-04-20T23:51:24.042Z,29.50
2023-04-20T23:53:52.029Z,30.80
2023-04-20T23:56:19.349Z,27.60
2023-04-20T23:58:46.678Z,29.50
